Time;durP1;ratioP1;P1;durP2;ratioP2;P2;SDS_P1;SDS_P2;PMS_P1;PMS_P2;Temp;Humidity;BMP_temperature;BMP_pressure;BME280_temperature;BME280_humidity;BME280_pressure;Samples;Min_cycle;Max_cycle;Signal;HPM_P1;HPM_P2
2021/12/10 00:00:27;;;;;;;12.17;9.23;;;2.40;99.90;;;;;;5079243;28;20465;-63
2021/12/10 00:02:55;;;;;;;12.67;10.90;;;2.50;99.90;;;;;;5079880;28;20466;-63
2021/12/10 00:05:25;;;;;;;12.13;10.43;;;2.60;99.90;;;;;;5079082;28;20514;-64
2021/12/10 00:07:55;;;;;;;15.90;10.13;;;2.60;99.90;;;;;;5079110;28;20517;-63
2021/12/10 00:10:28;;;;;;;19.60;11.03;;;2.60;99.90;;;;;;5079453;28;20488;-63
2021/12/10 00:12:56;;;;;;;12.93;10.20;;;2.60;99.90;;;;;;5079103;28;20526;-64
2021/12/10 00:15:26;;;;;;;11.80;9.83;;;2.70;99.90;;;;;;5079797;28;20484;-63
2021/12/10 00:17:55;;;;;;;12.60;10.77;;;2.70;99.90;;;;;;5078961;28;20493;-63
2021/12/10 00:20:25;;;;;;;11.93;10.17;;;2.70;99.90;;;;;;5079179;28;20518;-63
2021/12/10 00:22:57;;;;;;;15.80;10.37;;;2.70;99.90;;;;;;5078687;28;20465;-63
2021/12/10 00:25:34;;;;;;;16.93;11.90;;;2.80;99.90;;;;;;5079484;28;20469;-63
2021/12/10 00:28:02;;;;;;;14.67;10.50;;;2.80;99.90;;;;;;5078706;28;20464;-63
2021/12/10 00:30:43;;;;;;;14.60;11.57;;;2.80;99.90;;;;;;5078819;28;20457;-63
2021/12/10 00:33:20;;;;;;;15.03;10.50;;;2.80;99.90;;;;;;5059493;28;20892;-64
2021/12/10 00:35:50;;;;;;;15.57;11.07;;;2.80;99.90;;;;;;5077391;28;20902;-63
2021/12/10 00:38:29;;;;;;;15.33;10.60;;;2.80;99.90;;;;;;5077578;28;20481;-63
2021/12/10 00:40:57;;;;;;;11.37;8.90;;;2.80;99.90;;;;;;5079201;28;20464;-63
2021/12/10 00:43:24;;;;;;;13.90;10.93;;;2.80;99.90;;;;;;5076588;28;20457;-63
2021/12/10 00:45:51;;;;;;;16.80;11.87;;;2.80;99.90;;;;;;5078185;28;20523;-63
2021/12/10 00:48:19;;;;;;;14.53;10.70;;;2.90;99.90;;;;;;5077883;28;20450;-63
2021/12/10 00:50:48;;;;;;;13.80;11.40;;;2.80;99.90;;;;;;5077554;28;20461;-63
2021/12/10 00:53:20;;;;;;;12.00;9.80;;;2.80;99.90;;;;;;5078502;28;20449;-62
2021/12/10 00:55:47;;;;;;;14.93;11.53;;;2.80;99.90;;;;;;5075922;28;20969;-63
2021/12/10 00:58:16;;;;;;;14.80;11.30;;;2.80;99.90;;;;;;5077514;28;20593;-63
2021/12/10 01:00:47;;;;;;;14.60;10.93;;;2.80;99.90;;;;;;5075552;28;20515;-63
2021/12/10 01:03:18;;;;;;;14.20;11.00;;;2.80;99.90;;;;;;5078086;28;21004;-63
2021/12/10 01:05:50;;;;;;;13.17;11.20;;;2.80;99.90;;;;;;5077608;28;20515;-63
2021/12/10 01:08:17;;;;;;;14.43;10.47;;;2.70;99.90;;;;;;5077723;28;20457;-63
2021/12/10 01:11:01;;;;;;;19.73;12.40;;;2.70;99.90;;;;;;5077636;28;20496;-63
2021/12/10 01:13:33;;;;;;;16.50;10.80;;;2.70;99.90;;;;;;5075908;28;20499;-62
2021/12/10 01:23:42;;;;;;;18.60;9.63;;;2.70;99.90;;;;;;5077376;28;20454;-63
2021/12/10 01:24:53;;;;;;;13.40;10.97;;;2.70;99.90;;;;;;5076570;28;20436;-63
2021/12/10 01:27:31;;;;;;;13.13;10.83;;;2.70;99.90;;;;;;5076957;28;20947;-63
2021/12/10 01:30:04;;;;;;;16.03;10.60;;;2.60;99.90;;;;;;5077896;28;20461;-63
2021/12/10 01:32:36;;;;;;;13.23;10.00;;;2.70;99.90;;;;;;5077610;28;20964;-63
2021/12/10 01:35:09;;;;;;;12.47;10.20;;;2.80;99.90;;;;;;5076897;28;20449;-62
2021/12/10 01:37:37;;;;;;;17.10;10.20;;;2.70;99.90;;;;;;5077289;28;20816;-63
2021/12/10 01:40:07;;;;;;;12.27;9.40;;;2.70;99.90;;;;;;5077762;28;20465;-63
2021/12/10 01:42:45;;;;;;;12.50;10.57;;;2.70;99.90;;;;;;5077835;28;20466;-63
2021/12/10 01:45:23;;;;;;;16.90;10.70;;;2.70;99.90;;;;;;5076563;28;20773;-62
2021/12/10 01:47:56;;;;;;;15.87;9.07;;;2.70;99.90;;;;;;5076260;28;20469;-63
2021/12/10 01:50:25;;;;;;;13.83;10.00;;;2.70;99.90;;;;;;5077465;28;20518;-63
2021/12/10 01:52:55;;;;;;;10.13;9.03;;;2.70;99.90;;;;;;5076861;28;20461;-63
2021/12/10 01:55:24;;;;;;;12.87;8.80;;;2.70;99.90;;;;;;5076435;28;20452;-64
2021/12/10 01:57:55;;;;;;;11.60;9.37;;;2.80;99.90;;;;;;5076853;28;20504;-63
2021/12/10 02:00:29;;;;;;;17.20;9.70;;;2.80;99.90;;;;;;5077028;28;20503;-63
2021/12/10 02:02:56;;;;;;;12.67;9.30;;;2.80;99.90;;;;;;5076649;28;20468;-62
2021/12/10 02:05:23;;;;;;;12.13;9.00;;;2.90;99.90;;;;;;5077210;28;20510;-61
2021/12/10 02:07:51;;;;;;;13.60;8.40;;;2.90;99.90;;;;;;5077080;28;20457;-63
2021/12/10 02:10:21;;;;;;;14.00;8.03;;;2.90;99.90;;;;;;5077023;28;20762;-63
2021/12/10 02:12:48;;;;;;;16.70;8.60;;;2.80;99.90;;;;;;5077026;28;20461;-63
2021/12/10 02:15:17;;;;;;;8.77;7.70;;;2.80;99.90;;;;;;5077581;28;20519;-63
2021/12/10 02:17:49;;;;;;;11.30;8.27;;;2.70;99.90;;;;;;5076000;28;20955;-62
2021/12/10 02:20:19;;;;;;;14.90;7.73;;;2.60;99.90;;;;;;5076789;28;20462;-60
2021/12/10 02:22:49;;;;;;;12.67;8.00;;;2.70;99.90;;;;;;5076921;28;20488;-63
2021/12/10 02:25:19;;;;;;;10.53;8.30;;;2.70;99.90;;;;;;5077063;28;20499;-63
2021/12/10 02:27:48;;;;;;;9.30;8.07;;;2.70;99.90;;;;;;5076452;28;20946;-62
2021/12/10 02:30:17;;;;;;;12.00;7.13;;;2.60;99.90;;;;;;5076045;28;20538;-63
2021/12/10 02:32:44;;;;;;;8.53;6.83;;;2.60;99.90;;;;;;5076736;28;20523;-63
2021/12/10 02:35:13;;;;;;;11.10;7.40;;;2.60;99.90;;;;;;5076472;28;20904;-63
2021/12/10 02:37:41;;;;;;;17.17;7.63;;;2.50;99.90;;;;;;5077897;28;20497;-63
2021/12/10 02:40:16;;;;;;;13.73;7.53;;;2.60;99.90;;;;;;5080868;28;20467;-63
2021/12/10 02:42:45;;;;;;;8.77;6.90;;;2.70;99.90;;;;;;5080729;28;20874;-63
2021/12/10 02:45:15;;;;;;;9.10;6.83;;;2.70;99.90;;;;;;5080307;28;20472;-63
2021/12/10 02:47:42;;;;;;;11.27;6.60;;;2.70;99.90;;;;;;5080720;28;20493;-63
2021/12/10 02:50:11;;;;;;;8.10;5.87;;;2.70;99.90;;;;;;5080396;28;20530;-63
2021/12/10 02:52:38;;;;;;;8.97;6.10;;;2.70;99.90;;;;;;5081113;28;20487;-63
2021/12/10 02:55:14;;;;;;;11.37;6.53;;;2.70;99.90;;;;;;5080749;28;20461;-63
2021/12/10 02:57:42;;;;;;;7.93;5.73;;;2.70;99.90;;;;;;5081262;28;20489;-63
2021/12/10 03:00:14;;;;;;;11.33;6.40;;;2.70;99.90;;;;;;5080322;28;20497;-63
2021/12/10 03:02:42;;;;;;;12.00;6.30;;;2.60;99.90;;;;;;5080168;28;20522;-63
2021/12/10 03:05:11;;;;;;;11.60;6.47;;;2.60;99.90;;;;;;5081373;28;20464;-62
2021/12/10 03:07:41;;;;;;;13.70;6.03;;;2.60;99.90;;;;;;5081251;28;20449;-61
2021/12/10 03:10:13;;;;;;;7.40;6.23;;;2.60;99.90;;;;;;5081053;28;20479;-63
2021/12/10 03:12:41;;;;;;;9.37;5.73;;;2.60;99.90;;;;;;5079649;28;20496;-62
2021/12/10 03:15:10;;;;;;;7.87;4.90;;;2.60;99.90;;;;;;5080582;28;20505;-61
2021/12/10 03:17:42;;;;;;;13.33;6.00;;;2.50;99.90;;;;;;5079835;28;20485;-62
2021/12/10 03:20:12;;;;;;;7.70;4.77;;;2.50;99.90;;;;;;5080533;28;20472;-63
2021/12/10 03:22:40;;;;;;;8.20;4.57;;;2.40;99.90;;;;;;5079549;28;20457;-63
2021/12/10 03:25:11;;;;;;;9.90;4.83;;;2.50;99.90;;;;;;5080240;28;20513;-63
2021/12/10 03:27:40;;;;;;;12.70;5.23;;;2.40;99.90;;;;;;5079473;28;20949;-62
2021/12/10 03:30:11;;;;;;;8.17;5.20;;;2.50;99.90;;;;;;5080582;28;20767;-63
2021/12/10 03:32:39;;;;;;;8.30;5.27;;;2.40;99.90;;;;;;5079347;28;20495;-61
2021/12/10 03:35:13;;;;;;;4.77;4.27;;;2.40;99.90;;;;;;5080017;28;20492;-63
2021/12/10 03:37:41;;;;;;;7.40;4.70;;;2.40;99.90;;;;;;5079248;28;20496;-62
2021/12/10 03:40:14;;;;;;;6.70;3.70;;;2.40;99.90;;;;;;5080133;28;20533;-63
2021/12/10 03:42:43;;;;;;;8.47;4.80;;;2.30;99.90;;;;;;5078574;28;20534;-60
2021/12/10 03:45:13;;;;;;;10.00;4.77;;;2.30;99.90;;;;;;5079867;28;20507;-63
2021/12/10 03:47:40;;;;;;;8.90;4.53;;;2.30;99.90;;;;;;5081982;28;20785;-63
2021/12/10 03:50:09;;;;;;;6.07;4.70;;;2.30;99.90;;;;;;5100849;28;20510;-63
2021/12/10 03:52:36;;;;;;;14.53;5.00;;;2.30;99.90;;;;;;5096716;28;20775;-63
2021/12/10 03:55:05;;;;;;;8.67;3.83;;;2.30;99.90;;;;;;5080212;28;20470;-63
2021/12/10 03:57:32;;;;;;;7.20;3.87;;;2.30;99.90;;;;;;5080135;28;20511;-62
2021/12/10 04:00:01;;;;;;;13.10;4.53;;;2.30;99.90;;;;;;5080408;28;20503;-63
2021/12/10 04:02:28;;;;;;;10.30;4.60;;;2.30;99.90;;;;;;5080252;28;20460;-63
2021/12/10 04:04:55;;;;;;;9.37;4.00;;;2.30;99.90;;;;;;5079111;28;20519;-62
2021/12/10 04:07:25;;;;;;;10.30;4.20;;;2.30;99.90;;;;;;5080088;28;20909;-62
2021/12/10 04:09:53;;;;;;;15.73;4.17;;;2.30;99.90;;;;;;5080871;28;20495;-62
2021/12/10 04:12:22;;;;;;;12.03;4.43;;;2.20;99.90;;;;;;5079716;28;20457;-62
2021/12/10 04:14:53;;;;;;;10.43;4.60;;;2.30;99.90;;;;;;5079682;28;20556;-62
2021/12/10 04:17:23;;;;;;;8.83;4.53;;;2.20;99.90;;;;;;5079751;28;20453;-63
2021/12/10 04:19:51;;;;;;;12.30;4.83;;;2.20;99.90;;;;;;5079798;28;20770;-62
2021/12/10 04:22:20;;;;;;;12.00;4.10;;;2.20;99.90;;;;;;5080511;28;20468;-62
2021/12/10 04:24:47;;;;;;;7.73;4.03;;;2.30;99.90;;;;;;5080094;28;20496;-62
2021/12/10 04:27:15;;;;;;;10.47;4.50;;;2.20;99.90;;;;;;5079773;28;20458;-62
2021/12/10 04:29:43;;;;;;;8.33;2.70;;;2.20;99.90;;;;;;5079889;28;20742;-62
2021/12/10 04:32:13;;;;;;;9.37;4.30;;;2.30;99.90;;;;;;5080370;28;20531;-62
2021/12/10 04:34:42;;;;;;;7.37;3.50;;;2.30;99.90;;;;;;5080376;28;20468;-62
2021/12/10 04:37:10;;;;;;;7.00;3.20;;;2.30;99.90;;;;;;5079611;28;20465;-63
2021/12/10 04:39:44;;;;;;;12.00;3.30;;;2.30;99.90;;;;;;5079737;28;20531;-63
2021/12/10 04:42:11;;;;;;;7.23;3.30;;;2.30;99.90;;;;;;5080213;28;20464;-63
2021/12/10 04:44:38;;;;;;;8.30;3.70;;;2.30;99.90;;;;;;5079888;28;20485;-62
2021/12/10 04:47:06;;;;;;;5.90;2.93;;;2.30;99.90;;;;;;5079805;28;20485;-63
2021/12/10 04:49:33;;;;;;;14.87;3.20;;;2.30;99.90;;;;;;5078784;28;20505;-63
2021/12/10 04:52:02;;;;;;;4.17;2.80;;;2.30;99.90;;;;;;5079588;28;20514;-63
2021/12/10 04:54:29;;;;;;;6.03;3.00;;;2.20;99.90;;;;;;5079821;28;20500;-63
2021/12/10 04:56:58;;;;;;;7.83;3.57;;;2.30;99.90;;;;;;5079424;28;20816;-63
2021/12/10 04:59:27;;;;;;;7.80;2.53;;;2.30;99.90;;;;;;5078852;28;20492;-63
2021/12/10 05:01:56;;;;;;;8.70;2.97;;;2.30;99.90;;;;;;5078137;28;20503;-62
2021/12/10 05:04:24;;;;;;;3.53;3.10;;;2.30;99.90;;;;;;5079828;28;20440;-62
2021/12/10 05:06:54;;;;;;;7.83;2.93;;;2.30;99.90;;;;;;5078787;28;20559;-62
2021/12/10 05:09:23;;;;;;;11.77;3.73;;;2.40;99.90;;;;;;5079033;28;20453;-62
2021/12/10 05:11:53;;;;;;;6.50;3.10;;;2.40;99.90;;;;;;5078779;28;20539;-63
2021/12/10 05:14:21;;;;;;;5.00;3.03;;;2.40;99.90;;;;;;5079830;28;20728;-63
2021/12/10 05:16:50;;;;;;;9.57;4.07;;;2.40;99.90;;;;;;5079031;28;20457;-63
2021/12/10 05:19:23;;;;;;;8.87;4.00;;;2.40;99.90;;;;;;5078702;28;20497;-62
2021/12/10 05:21:52;;;;;;;8.33;3.30;;;2.50;99.90;;;;;;5079213;28;20501;-63
2021/12/10 05:24:20;;;;;;;5.63;3.30;;;2.40;99.90;;;;;;5079084;28;20447;-63
2021/12/10 05:26:48;;;;;;;13.77;4.17;;;2.40;99.90;;;;;;5079673;28;20465;-62
2021/12/10 05:29:16;;;;;;;8.33;3.50;;;2.40;99.90;;;;;;5079245;28;20526;-63
2021/12/10 05:31:45;;;;;;;6.87;3.27;;;2.40;99.90;;;;;;5078058;28;20465;-62
2021/12/10 05:34:13;;;;;;;5.93;3.53;;;2.40;99.90;;;;;;5078609;28;20465;-63
2021/12/10 05:36:41;;;;;;;5.97;4.33;;;2.40;99.90;;;;;;5078616;28;20485;-63
2021/12/10 05:39:09;;;;;;;12.37;4.67;;;2.40;99.90;;;;;;5078890;28;20856;-63
2021/12/10 05:41:39;;;;;;;8.60;3.37;;;2.40;99.90;;;;;;5078435;28;20461;-63
2021/12/10 05:44:08;;;;;;;6.50;3.80;;;2.40;99.90;;;;;;5078955;28;20519;-63
2021/12/10 05:46:37;;;;;;;12.90;4.23;;;2.40;99.90;;;;;;5078992;28;20459;-62
2021/12/10 05:49:04;;;;;;;14.53;4.20;;;2.30;99.90;;;;;;5078463;28;20489;-62
2021/12/10 05:51:32;;;;;;;5.30;3.47;;;2.40;99.90;;;;;;5078247;28;20471;-63
2021/12/10 05:54:00;;;;;;;15.40;4.60;;;2.40;99.90;;;;;;5078668;28;20465;-63
2021/12/10 05:56:27;;;;;;;8.83;4.27;;;2.30;99.90;;;;;;5078335;28;20498;-63
2021/12/10 05:58:56;;;;;;;10.43;4.33;;;2.40;99.90;;;;;;5078494;28;20550;-63
2021/12/10 06:01:25;;;;;;;9.53;4.70;;;2.40;99.90;;;;;;5077213;28;20461;-64
2021/12/10 06:03:53;;;;;;;9.77;3.80;;;2.40;99.90;;;;;;5078685;28;20492;-63
2021/12/10 06:06:21;;;;;;;10.43;4.97;;;2.30;99.90;;;;;;5076720;28;20466;-63
2021/12/10 06:08:51;;;;;;;6.00;3.70;;;2.30;99.90;;;;;;5077896;28;20453;-63
2021/12/10 06:11:20;;;;;;;5.37;4.17;;;2.30;99.90;;;;;;5078283;28;20487;-63
2021/12/10 06:13:47;;;;;;;8.60;4.00;;;2.30;85.30;;;;;;5078327;28;20473;-63
2021/12/10 06:16:15;;;;;;;11.50;4.33;;;2.30;99.40;;;;;;5078767;28;20469;-63
2021/12/10 06:18:44;;;;;;;6.90;3.97;;;2.30;99.90;;;;;;5078240;28;20833;-63
2021/12/10 06:21:13;;;;;;;11.20;4.47;;;2.30;99.90;;;;;;5078061;28;20838;-63
2021/12/10 06:23:40;;;;;;;10.40;4.70;;;2.30;90.10;;;;;;5078129;28;20461;-63
2021/12/10 06:26:07;;;;;;;15.53;4.70;;;2.30;27.70;;;;;;5077168;28;20457;-63
2021/12/10 06:28:36;;;;;;;10.30;4.20;;;2.30;9.80;;;;;;5077847;28;20755;-63
2021/12/10 06:31:04;;;;;;;5.60;3.43;;;2.30;23.80;;;;;;5077134;28;20465;-63
2021/12/10 06:33:31;;;;;;;9.93;3.63;;;2.30;11.90;;;;;;5075570;28;20486;-63
2021/12/10 06:36:03;;;;;;;8.30;4.27;;;2.20;1.00;;;;;;5075837;28;20776;-63
2021/12/10 06:38:32;;;;;;;9.13;3.80;;;2.30;1.00;;;;;;5075732;28;20468;-63
2021/12/10 06:41:00;;;;;;;7.93;4.50;;;2.20;1.00;;;;;;5075254;28;20457;-63
2021/12/10 06:43:30;;;;;;;6.50;4.27;;;2.20;1.00;;;;;;5075685;28;20458;-64
2021/12/10 06:46:01;;;;;;;4.83;3.50;;;2.30;1.00;;;;;;5076428;28;20481;-63
2021/12/10 06:48:29;;;;;;;9.93;4.17;;;2.20;1.00;;;;;;5075336;28;20528;-64
2021/12/10 06:51:02;;;;;;;7.43;3.87;;;2.10;1.00;;;;;;5076594;28;20489;-64
2021/12/10 06:53:31;;;;;;;8.03;4.63;;;2.10;1.00;;;;;;5073933;28;20860;-64
2021/12/10 06:55:59;;;;;;;7.10;4.03;;;2.10;1.00;;;;;;5077826;28;20457;-63
2021/12/10 06:58:29;;;;;;;5.47;3.40;;;2.10;1.00;;;;;;5076936;28;20470;-64
2021/12/10 07:00:58;;;;;;;8.73;4.10;;;2.10;1.00;;;;;;5076404;28;20887;-64
2021/12/10 07:03:28;;;;;;;5.37;3.60;;;2.10;1.00;;;;;;5075102;28;20453;-64
2021/12/10 07:06:00;;;;;;;6.80;3.50;;;2.10;1.00;;;;;;5075604;28;20745;-65
2021/12/10 07:08:34;;;;;;;6.20;3.90;;;2.00;1.00;;;;;;5076835;28;20895;-65
2021/12/10 07:11:01;;;;;;;9.27;4.40;;;2.10;1.00;;;;;;5076585;28;20506;-64
2021/12/10 07:13:33;;;;;;;10.77;3.67;;;2.10;1.00;;;;;;5076668;28;20475;-64
2021/12/10 07:16:04;;;;;;;10.23;4.27;;;2.00;1.00;;;;;;5077178;28;20904;-64
2021/12/10 07:18:31;;;;;;;10.23;4.03;;;2.10;1.00;;;;;;5074544;28;20501;-64
2021/12/10 07:21:00;;;;;;;6.10;3.80;;;2.00;1.00;;;;;;5077034;28;20546;-65
2021/12/10 07:23:28;;;;;;;10.30;3.80;;;2.00;1.00;;;;;;5076171;28;20471;-64
2021/12/10 07:25:55;;;;;;;9.27;3.47;;;2.00;1.00;;;;;;5081357;28;20461;-64
2021/12/10 07:28:23;;;;;;;10.57;3.63;;;2.00;1.00;;;;;;5081357;28;20462;-64
2021/12/10 07:30:51;;;;;;;6.87;2.90;;;2.00;1.00;;;;;;5081054;28;20511;-64
2021/12/10 07:33:19;;;;;;;4.77;3.30;;;2.00;1.00;;;;;;5080155;28;20468;-64
2021/12/10 07:35:50;;;;;;;6.43;3.53;;;2.00;1.00;;;;;;5081351;28;20469;-64
2021/12/10 07:38:19;;;;;;;8.60;3.80;;;2.00;99.90;;;;;;5080229;28;20523;-64
2021/12/10 07:40:48;;;;;;;13.07;3.63;;;2.00;99.90;;;;;;5079941;28;20485;-64
2021/12/10 07:43:16;;;;;;;7.57;3.20;;;2.10;99.90;;;;;;5079870;28;20892;-64
2021/12/10 07:45:46;;;;;;;11.77;3.73;;;2.10;99.90;;;;;;5077645;28;20457;-64
2021/12/10 07:48:17;;;;;;;8.23;4.37;;;2.10;99.90;;;;;;5075678;28;20470;-64
2021/12/10 07:50:53;;;;;;;9.47;3.97;;;2.20;80.60;;;;;;5074415;28;20458;-64
2021/12/10 07:53:26;;;;;;;6.50;3.80;;;2.20;99.90;;;;;;5073026;28;20453;-64
2021/12/10 07:55:55;;;;;;;8.23;3.50;;;2.20;41.40;;;;;;5080979;28;20461;-64
2021/12/10 07:58:23;;;;;;;12.03;4.10;;;2.20;27.00;;;;;;5081507;28;20516;-64
2021/12/10 08:00:53;;;;;;;5.43;3.43;;;2.20;99.90;;;;;;5080218;28;20524;-64
2021/12/10 08:03:20;;;;;;;7.97;3.50;;;2.30;1.00;;;;;;5080651;28;20773;-64
2021/12/10 08:05:49;;;;;;;10.10;3.50;;;2.30;1.00;;;;;;5080071;28;20519;-64
2021/12/10 08:08:16;;;;;;;10.53;3.80;;;2.40;99.90;;;;;;5080116;28;20484;-64
2021/12/10 08:10:46;;;;;;;14.60;4.50;;;2.50;99.90;;;;;;5080879;28;20824;-65
2021/12/10 08:13:21;;;;;;;6.63;3.13;;;2.60;99.90;;;;;;5080607;28;20461;-64
2021/12/10 08:15:51;;;;;;;8.90;3.40;;;2.70;99.90;;;;;;5080485;28;20461;-65
2021/12/10 08:18:18;;;;;;;11.57;4.43;;;2.70;99.90;;;;;;5079329;28;20466;-62
2021/12/10 08:20:45;;;;;;;7.87;2.90;;;2.80;1.00;;;;;;5080537;28;20485;-64
2021/12/10 08:23:16;;;;;;;6.70;3.10;;;3.00;4.10;;;;;;5079706;28;20526;-64
2021/12/10 08:25:43;;;;;;;5.33;2.47;;;3.00;1.00;;;;;;5080024;28;20740;-65
2021/12/10 08:28:10;;;;;;;10.63;3.37;;;3.10;90.60;;;;;;5078657;28;20457;-65
2021/12/10 08:30:42;;;;;;;6.50;2.90;;;3.20;99.90;;;;;;5079197;28;20860;-64
2021/12/10 08:33:13;;;;;;;4.93;2.43;;;3.20;1.00;;;;;;5079640;28;20461;-65
2021/12/10 08:35:42;;;;;;;6.37;3.17;;;3.20;1.00;;;;;;5078069;28;20461;-65
2021/12/10 08:38:09;;;;;;;8.07;2.90;;;3.20;1.00;;;;;;5079050;28;20927;-65
2021/12/10 08:40:40;;;;;;;4.77;3.30;;;3.40;1.00;;;;;;5078771;28;20943;-64
2021/12/10 08:43:08;;;;;;;7.73;3.20;;;3.40;1.00;;;;;;5079155;28;20522;-65
2021/12/10 08:45:36;;;;;;;8.93;3.40;;;3.50;99.90;;;;;;5078780;28;20566;-64
2021/12/10 08:48:06;;;;;;;6.20;3.17;;;3.60;99.90;;;;;;5078548;28;20562;-64
2021/12/10 08:50:34;;;;;;;6.63;2.80;;;3.50;1.00;;;;;;5078931;28;20462;-64
2021/12/10 08:53:04;;;;;;;7.57;2.97;;;3.50;99.90;;;;;;5078919;28;20472;-64
2021/12/10 08:55:33;;;;;;;6.13;2.97;;;3.50;99.90;;;;;;5077995;28;20458;-64
2021/12/10 08:58:01;;;;;;;10.73;3.37;;;3.50;99.90;;;;;;5078658;28;20852;-64
2021/12/10 09:00:29;;;;;;;6.17;2.70;;;3.50;99.90;;;;;;5077662;28;20509;-64
2021/12/10 09:03:00;;;;;;;6.13;3.40;;;3.50;99.90;;;;;;5078376;28;20443;-64
2021/12/10 09:05:34;;;;;;;4.53;2.77;;;3.50;99.90;;;;;;5078490;28;20457;-64
2021/12/10 09:08:01;;;;;;;6.97;3.47;;;3.60;99.90;;;;;;5077879;28;20981;-64
2021/12/10 09:10:31;;;;;;;9.07;3.77;;;3.60;99.90;;;;;;5078373;28;20895;-64
2021/12/10 09:12:59;;;;;;;5.40;3.30;;;3.80;96.50;;;;;;5077451;28;20465;-65
2021/12/10 09:15:28;;;;;;;7.50;3.87;;;3.90;38.10;;;;;;5077494;28;20476;-64
2021/12/10 09:17:58;;;;;;;9.10;3.53;;;4.00;9.80;;;;;;5078295;28;20465;-64
2021/12/10 09:20:35;;;;;;;8.13;3.50;;;4.00;1.00;;;;;;5077391;28;20934;-64
2021/12/10 09:23:03;;;;;;;14.90;3.83;;;4.10;1.00;;;;;;5077407;28;20553;-64
2021/12/10 09:25:30;;;;;;;5.07;3.63;;;4.10;1.00;;;;;;5076948;28;20492;-64
2021/12/10 09:28:00;;;;;;;6.47;2.93;;;4.30;1.00;;;;;;5077821;28;20931;-64
2021/12/10 09:30:31;;;;;;;6.57;3.70;;;4.30;1.00;;;;;;5066829;28;20554;-64
2021/12/10 09:33:00;;;;;;;10.83;3.40;;;4.30;1.00;;;;;;5070816;28;20511;-64
2021/12/10 09:35:38;;;;;;;9.53;3.10;;;4.40;1.00;;;;;;5077737;28;20461;-64
2021/12/10 09:38:08;;;;;;;6.90;3.10;;;4.30;1.00;;;;;;5077558;28;20930;-64
2021/12/10 09:40:38;;;;;;;6.07;3.30;;;4.20;1.00;;;;;;5076560;28;20946;-64
2021/12/10 09:43:07;;;;;;;4.20;3.20;;;4.30;1.00;;;;;;5072351;28;20476;-64
2021/12/10 09:45:36;;;;;;;5.87;3.10;;;4.40;1.00;;;;;;5068288;28;20538;-64
2021/12/10 09:48:06;;;;;;;3.77;3.43;;;4.50;1.00;;;;;;5063731;28;20931;-64
2021/12/10 09:50:42;;;;;;;7.00;3.23;;;4.50;1.00;;;;;;5072606;28;20464;-64
2021/12/10 09:53:11;;;;;;;6.40;3.57;;;4.30;1.00;;;;;;5076089;28;20500;-64
2021/12/10 09:55:38;;;;;;;9.63;2.73;;;4.00;1.00;;;;;;5077107;28;20461;-65
2021/12/10 09:58:07;;;;;;;9.50;3.63;;;3.80;1.00;;;;;;5076659;28;20465;-64
2021/12/10 10:00:37;;;;;;;6.00;2.90;;;3.70;1.00;;;;;;5077012;28;20525;-64
2021/12/10 10:03:09;;;;;;;5.77;3.30;;;3.70;1.00;;;;;;5075777;28;20493;-64
2021/12/10 10:05:42;;;;;;;3.97;3.30;;;3.70;1.00;;;;;;5068034;28;20469;-64
2021/12/10 10:08:12;;;;;;;6.17;3.40;;;3.70;1.00;;;;;;5076126;28;20534;-64
2021/12/10 10:10:50;;;;;;;3.30;2.67;;;3.70;1.00;;;;;;5075774;28;20469;-64
2021/12/10 10:13:19;;;;;;;8.00;3.30;;;3.70;1.00;;;;;;5076513;28;20500;-64
2021/12/10 10:15:47;;;;;;;4.43;3.07;;;3.70;1.00;;;;;;5077078;28;20746;-64
2021/12/10 10:18:16;;;;;;;5.43;2.90;;;3.80;1.00;;;;;;5077326;28;20513;-64
2021/12/10 10:20:47;;;;;;;4.47;2.77;;;3.80;1.00;;;;;;5075256;28;20542;-64
2021/12/10 10:23:19;;;;;;;6.43;3.20;;;3.90;1.00;;;;;;5076140;28;20469;-64
2021/12/10 10:25:50;;;;;;;5.37;2.90;;;3.90;1.00;;;;;;5074815;28;20814;-63
2021/12/10 10:28:19;;;;;;;4.10;3.07;;;4.10;1.00;;;;;;5076898;28;20768;-63
2021/12/10 10:30:57;;;;;;;7.17;3.37;;;4.10;1.00;;;;;;5074344;28;20741;-63
2021/12/10 10:33:28;;;;;;;7.50;2.80;;;4.20;1.00;;;;;;5075213;28;20511;-63
2021/12/10 10:36:01;;;;;;;4.53;2.90;;;4.20;1.00;;;;;;5075586;28;20858;-63
2021/12/10 10:38:28;;;;;;;6.83;3.53;;;4.30;1.00;;;;;;5075850;28;20496;-63
2021/12/10 10:41:02;;;;;;;5.33;3.03;;;4.30;1.00;;;;;;5075431;28;20538;-61
2021/12/10 10:43:30;;;;;;;4.23;3.00;;;4.40;1.00;;;;;;5076264;28;20788;-61
2021/12/10 10:46:00;;;;;;;5.30;3.60;;;4.40;1.00;;;;;;5075110;28;20833;-61
2021/12/10 10:48:29;;;;;;;4.10;2.63;;;4.40;1.00;;;;;;5075660;28;20453;-62
2021/12/10 10:51:03;;;;;;;4.83;2.63;;;4.40;1.00;;;;;;5074035;28;20542;-63
2021/12/10 10:53:34;;;;;;;4.27;2.80;;;4.50;1.00;;;;;;5073775;28;20482;-64
2021/12/10 10:56:07;;;;;;;4.57;2.27;;;4.50;1.00;;;;;;5074155;28;20454;-63
2021/12/10 10:58:37;;;;;;;5.00;2.57;;;4.50;1.00;;;;;;5075612;28;20887;-62
2021/12/10 11:01:14;;;;;;;7.30;3.20;;;4.60;1.00;;;;;;5076171;28;20468;-62
2021/12/10 11:03:46;;;;;;;5.60;2.87;;;4.70;1.00;;;;;;5077535;28;20564;-61
2021/12/10 11:06:17;;;;;;;8.30;3.30;;;4.60;1.00;;;;;;5078098;28;20511;-63
2021/12/10 11:08:50;;;;;;;6.47;3.37;;;4.50;1.00;;;;;;5076772;28;20468;-63
2021/12/10 11:11:20;;;;;;;5.20;2.80;;;4.50;1.00;;;;;;5077574;28;20508;-63
2021/12/10 11:13:49;;;;;;;3.50;2.70;;;4.40;1.00;;;;;;5076583;28;20514;-61
2021/12/10 11:16:19;;;;;;;4.80;3.00;;;4.40;1.00;;;;;;5078329;28;20457;-61
2021/12/10 11:18:53;;;;;;;5.50;2.67;;;4.50;1.00;;;;;;5075264;28;20468;-61
2021/12/10 11:21:40;;;;;;;7.10;3.30;;;4.40;1.00;;;;;;5076777;28;20484;-61
2021/12/10 11:24:19;;;;;;;8.73;3.20;;;4.40;1.00;;;;;;5077515;28;20523;-61
2021/12/10 11:26:51;;;;;;;4.90;2.90;;;4.40;1.00;;;;;;5076066;28;20463;-63
2021/12/10 11:29:40;;;;;;;7.43;3.10;;;4.40;1.00;;;;;;5076305;28;20887;-63
2021/12/10 11:32:10;;;;;;;5.70;2.87;;;4.40;1.00;;;;;;5075788;28;20457;-63
2021/12/10 11:34:47;;;;;;;5.70;2.83;;;4.40;1.00;;;;;;5078405;28;20453;-63
2021/12/10 11:37:37;;;;;;;7.10;3.23;;;4.40;1.00;;;;;;5078829;28;20879;-60
2021/12/10 11:40:06;;;;;;;4.30;2.93;;;4.40;1.00;;;;;;5079449;28;20461;-61
2021/12/10 11:42:41;;;;;;;7.40;3.27;;;4.60;1.00;;;;;;5078390;28;20465;-60
2021/12/10 11:45:34;;;;;;;3.80;2.47;;;4.70;1.00;;;;;;5079304;28;20899;-60
2021/12/10 11:48:09;;;;;;;7.03;3.50;;;4.80;1.00;;;;;;5075085;28;20491;-62
2021/12/10 11:50:39;;;;;;;4.80;3.13;;;4.70;1.00;;;;;;5079067;28;20460;-60
2021/12/10 11:53:16;;;;;;;6.70;2.73;;;4.70;1.00;;;;;;5077876;28;20530;-61
2021/12/10 11:56:05;;;;;;;6.53;3.63;;;4.60;1.00;;;;;;5078033;28;20514;-61
2021/12/10 11:58:35;;;;;;;5.20;2.37;;;4.70;1.00;;;;;;5042686;28;20534;-61
2021/12/10 12:01:02;;;;;;;5.37;3.00;;;4.70;1.00;;;;;;5078226;28;20546;-61
2021/12/10 12:03:34;;;;;;;9.00;4.10;;;4.70;1.00;;;;;;5077183;28;20462;-61
2021/12/10 12:06:07;;;;;;;5.27;3.00;;;4.60;1.00;;;;;;5078127;28;20450;-61
2021/12/10 12:08:40;;;;;;;4.90;2.90;;;4.80;1.00;;;;;;5078231;28;20461;-61
2021/12/10 12:11:13;;;;;;;6.20;3.30;;;4.80;1.00;;;;;;5076527;28;20899;-61
2021/12/10 12:13:53;;;;;;;3.40;2.50;;;4.70;1.00;;;;;;5077906;28;20491;-61
2021/12/10 12:16:26;;;;;;;6.83;3.27;;;4.60;1.00;;;;;;5077106;28;20503;-61
2021/12/10 12:18:58;;;;;;;3.03;2.70;;;4.50;1.00;;;;;;5077925;28;20488;-62
2021/12/10 12:27:19;;;;;;;5.33;3.10;;;4.30;1.00;;;;;;5077168;28;20890;-62
2021/12/10 12:29:52;;;;;;;4.57;2.70;;;4.20;1.00;;;;;;5076659;28;20871;-63
2021/12/10 12:32:22;;;;;;;8.23;2.80;;;4.10;1.00;;;;;;5073101;28;20540;-62
2021/12/10 12:34:50;;;;;;;4.30;3.20;;;4.10;1.00;;;;;;5075159;28;20555;-63
2021/12/10 12:37:21;;;;;;;4.40;2.70;;;4.00;1.00;;;;;;5072996;28;20527;-63
2021/12/10 12:39:54;;;;;;;7.27;2.53;;;4.00;1.00;;;;;;5070385;28;20461;-63
2021/12/10 12:42:24;;;;;;;4.90;3.03;;;4.10;1.00;;;;;;5074300;28;20547;-63
2021/12/10 12:44:53;;;;;;;6.13;3.17;;;4.10;1.00;;;;;;5075201;28;20465;-62
2021/12/10 12:47:32;;;;;;;8.80;3.20;;;4.20;1.00;;;;;;5075344;28;20574;-62
2021/12/10 12:50:09;;;;;;;3.90;2.87;;;4.20;1.00;;;;;;5076149;28;20465;-62
2021/12/10 12:52:45;;;;;;;5.63;2.50;;;4.30;1.00;;;;;;5075286;28;20457;-62
2021/12/10 12:55:35;;;;;;;4.20;2.97;;;4.40;1.00;;;;;;5076470;28;20546;-62
2021/12/10 12:58:13;;;;;;;3.97;2.80;;;4.50;1.00;;;;;;5077752;28;20520;-63
2021/12/10 13:00:45;;;;;;;4.70;2.83;;;4.50;1.00;;;;;;5074791;28;20531;-62
2021/12/10 13:03:22;;;;;;;5.80;3.40;;;4.50;1.00;;;;;;5074552;28;20458;-63
2021/12/10 13:05:59;;;;;;;4.13;2.77;;;4.50;1.00;;;;;;5075885;28;20464;-62
2021/12/10 13:08:32;;;;;;;7.13;3.07;;;4.50;1.00;;;;;;5075627;28;20461;-62
2021/12/10 13:11:10;;;;;;;4.00;2.80;;;4.50;1.00;;;;;;5071601;28;20457;-63
2021/12/10 13:13:41;;;;;;;5.00;2.67;;;4.50;1.00;;;;;;5076989;28;20468;-63
2021/12/10 13:16:11;;;;;;;3.60;2.83;;;4.40;1.00;;;;;;5077931;28;20465;-63
2021/12/10 13:18:45;;;;;;;6.10;3.13;;;4.30;1.00;;;;;;5077122;28;20461;-63
2021/12/10 13:21:15;;;;;;;11.33;3.00;;;4.40;1.00;;;;;;5076012;28;20517;-63
2021/12/10 13:23:42;;;;;;;6.17;3.13;;;4.30;1.00;;;;;;5076964;28;20461;-62
2021/12/10 13:26:12;;;;;;;10.07;2.80;;;4.40;1.00;;;;;;5080578;28;20515;-62